createdAt,value
2023-11-12T00:00:19.654Z,1000.47
2023-11-12T00:01:19.620Z,1000.50
2023-11-12T00:02:19.656Z,1000.52
2023-11-12T00:03:19.801Z,1000.47
2023-11-12T00:04:19.572Z,1000.53
2023-11-12T00:05:19.611Z,1000.47
2023-11-12T00:06:19.549Z,1000.50
2023-11-12T00:07:19.569Z,1000.52
2023-11-12T00:08:19.586Z,1000.49
2023-11-12T00:09:19.556Z,1000.49
2023-11-12T00:10:19.513Z,1000.48
2023-11-12T00:11:19.579Z,1000.48
2023-11-12T00:12:19.487Z,1000.49
2023-11-12T00:13:19.514Z,1000.43
2023-11-12T00:14:19.514Z,1000.47
2023-11-12T00:15:19.494Z,1000.46
2023-11-12T00:16:19.504Z,1000.46
2023-11-12T00:17:19.471Z,1000.45
2023-11-12T00:18:19.446Z,1000.40
2023-11-12T00:19:19.632Z,1000.44
2023-11-12T00:20:19.476Z,1000.42
2023-11-12T00:21:19.730Z,1000.41
2023-11-12T00:22:19.388Z,1000.44
2023-11-12T00:23:19.497Z,1000.46
2023-11-12T00:24:19.395Z,1000.44
2023-11-12T00:25:19.372Z,1000.44
2023-11-12T00:26:19.481Z,1000.45
2023-11-12T00:27:19.334Z,1000.42
2023-11-12T00:28:19.344Z,1000.40
2023-11-12T00:29:19.357Z,1000.40
2023-11-12T00:30:19.322Z,1000.46
2023-11-12T00:31:19.319Z,1000.40
2023-11-12T00:32:19.389Z,1000.38
2023-11-12T00:33:19.371Z,1000.44
2023-11-12T00:34:19.276Z,1000.33
2023-11-12T00:35:19.343Z,1000.38
2023-11-12T00:36:19.269Z,1000.37
2023-11-12T00:37:19.264Z,1000.37
2023-11-12T00:38:19.330Z,1000.36
2023-11-12T00:39:19.236Z,1000.38
2023-11-12T00:40:19.241Z,1000.37
2023-11-12T00:41:19.229Z,1000.42
2023-11-12T00:42:19.180Z,1000.43
2023-11-12T00:43:19.166Z,1000.41
2023-11-12T00:44:19.205Z,1000.44
2023-11-12T00:45:19.177Z,1000.46
2023-11-12T00:46:19.228Z,1000.48
2023-11-12T00:47:19.165Z,1000.54
2023-11-12T00:48:19.132Z,1000.55
2023-11-12T00:49:19.120Z,1000.52
2023-11-12T00:50:19.163Z,1000.55
2023-11-12T00:51:19.116Z,1000.55
2023-11-12T00:52:19.069Z,1000.53
2023-11-12T00:53:19.161Z,1000.51
2023-11-12T00:54:19.072Z,1000.55
2023-11-12T00:55:19.069Z,1000.56
2023-11-12T00:56:19.090Z,1000.54
2023-11-12T00:57:19.023Z,1000.56
2023-11-12T00:58:19.047Z,1000.57
2023-11-12T00:59:19.057Z,1000.57
2023-11-12T01:00:19.004Z,1000.53
2023-11-12T01:01:19.053Z,1000.54
2023-11-12T01:02:18.996Z,1000.54
2023-11-12T01:03:19.057Z,1000.56
2023-11-12T01:04:18.959Z,1000.50
2023-11-12T01:05:19.001Z,1000.56
2023-11-12T01:06:18.957Z,1000.56
2023-11-12T01:07:18.926Z,1000.52
2023-11-12T01:08:19.029Z,1000.61
2023-11-12T01:09:18.899Z,1000.64
2023-11-12T01:10:18.899Z,1000.64
2023-11-12T01:11:19.010Z,1000.66
2023-11-12T01:12:18.862Z,1000.66
2023-11-12T01:13:18.865Z,1000.68
2023-11-12T01:14:19.099Z,1000.64
2023-11-12T01:15:18.976Z,1000.63
2023-11-12T01:16:18.831Z,1000.63
2023-11-12T01:17:18.878Z,1000.61
2023-11-12T01:18:19.000Z,1000.64
2023-11-12T01:19:18.838Z,1000.61
2023-11-12T01:20:18.821Z,1000.59
2023-11-12T01:21:18.807Z,1000.62
2023-11-12T01:22:18.843Z,1000.65
2023-11-12T01:23:18.838Z,1000.64
2023-11-12T01:24:18.777Z,1000.61
2023-11-12T01:25:18.827Z,1000.61
2023-11-12T01:26:18.722Z,1000.66
2023-11-12T01:27:18.849Z,1000.67
2023-11-12T01:28:18.727Z,1000.69
2023-11-12T01:29:18.741Z,1000.67
2023-11-12T01:30:18.773Z,1000.69
2023-11-12T01:31:18.757Z,1000.66
2023-11-12T01:32:18.661Z,1000.65
2023-11-12T01:33:18.853Z,1000.72
2023-11-12T01:34:18.642Z,1000.67
2023-11-12T01:35:18.646Z,1000.68
2023-11-12T01:36:18.637Z,1000.68
2023-11-12T01:37:18.606Z,1000.66
2023-11-12T01:38:18.627Z,1000.69
2023-11-12T01:39:18.654Z,1000.69
2023-11-12T01:40:18.600Z,1000.68
2023-11-12T01:41:18.573Z,1000.69
2023-11-12T01:42:18.619Z,1000.64
2023-11-12T01:43:18.541Z,1000.64
2023-11-12T01:44:18.581Z,1000.64
2023-11-12T01:45:18.545Z,1000.59
2023-11-12T01:46:18.552Z,1000.67
2023-11-12T01:47:18.512Z,1000.61
2023-11-12T01:48:18.807Z,1000.64
2023-11-12T01:49:18.515Z,1000.60
2023-11-12T01:50:18.482Z,1000.61
2023-11-12T01:51:18.616Z,1000.60
2023-11-12T01:52:18.469Z,1000.54
2023-11-12T01:53:18.433Z,1000.62
2023-11-12T01:54:18.469Z,1000.56
2023-11-12T01:55:18.445Z,1000.57
2023-11-12T01:56:18.419Z,1000.53
2023-11-12T01:57:18.437Z,1000.55
2023-11-12T01:58:18.408Z,1000.59
2023-11-12T01:59:18.382Z,1000.52
2023-11-12T02:00:18.394Z,1000.48
2023-11-12T02:01:18.410Z,1000.49
2023-11-12T02:02:18.362Z,1000.51
2023-11-12T02:03:18.457Z,1000.54
2023-11-12T02:04:18.387Z,1000.62
2023-11-12T02:05:18.336Z,1000.59
2023-11-12T02:06:18.318Z,1000.60
2023-11-12T02:07:18.305Z,1000.60
2023-11-12T02:08:18.281Z,1000.63
2023-11-12T02:09:18.306Z,1000.61
2023-11-12T02:10:18.265Z,1000.61
2023-11-12T02:11:18.241Z,1000.59
2023-11-12T02:12:18.261Z,1000.64
2023-11-12T02:13:18.234Z,1000.61
2023-11-12T02:14:18.239Z,1000.62
2023-11-12T02:15:18.305Z,1000.55
2023-11-12T02:16:18.241Z,1000.61
2023-11-12T02:17:18.203Z,1000.52
2023-11-12T02:18:18.263Z,1000.56
2023-11-12T02:19:18.195Z,1000.53
2023-11-12T02:20:18.282Z,1000.48
2023-11-12T02:21:18.193Z,1000.50
2023-11-12T02:22:18.142Z,1000.48
2023-11-12T02:23:18.147Z,1000.54
2023-11-12T02:24:18.127Z,1000.49
2023-11-12T02:25:18.098Z,1000.53
2023-11-12T02:26:18.102Z,1000.53
2023-11-12T02:27:18.136Z,1000.53
2023-11-12T02:28:18.069Z,1000.56
2023-11-12T02:29:18.066Z,1000.56
2023-11-12T02:30:18.107Z,1000.60
2023-11-12T02:31:18.087Z,1000.62
2023-11-12T02:32:18.033Z,1000.60
2023-11-12T02:33:18.112Z,1000.62
2023-11-12T02:34:18.007Z,1000.59
2023-11-12T02:35:18.069Z,1000.59
2023-11-12T02:36:18.024Z,1000.63
2023-11-12T02:37:17.994Z,1000.60
2023-11-12T02:39:43.135Z,1000.61
2023-11-12T02:39:48.651Z,1000.62
2023-11-12T02:40:48.658Z,1000.59
2023-11-12T02:41:48.636Z,1000.61
2023-11-12T02:42:48.633Z,1000.61
2023-11-12T02:43:48.619Z,1000.62
2023-11-12T02:44:48.577Z,1000.58
2023-11-12T02:45:48.639Z,1000.57
2023-11-12T02:46:48.580Z,1000.59
2023-11-12T02:47:48.569Z,1000.62
2023-11-12T02:48:48.662Z,1000.62
2023-11-12T02:49:48.554Z,1000.55
2023-11-12T02:50:48.555Z,1000.55
2023-11-12T02:51:48.511Z,1000.55
2023-11-12T02:52:48.503Z,1000.53
2023-11-12T02:53:48.495Z,1000.61
2023-11-12T02:54:48.474Z,1000.56
2023-11-12T02:55:48.487Z,1000.62
2023-11-12T02:56:48.469Z,1000.58
2023-11-12T02:57:48.456Z,1000.59
2023-11-12T02:58:48.442Z,1000.60
2023-11-12T02:59:48.445Z,1000.62
2023-11-12T03:00:48.471Z,1000.66
2023-11-12T03:01:48.439Z,1000.62
2023-11-12T03:02:48.450Z,1000.62
2023-11-12T03:03:48.497Z,1000.62
2023-11-12T03:04:48.395Z,1000.58
2023-11-12T03:05:48.363Z,1000.62
2023-11-12T03:06:57.160Z,1000.65
2023-11-12T03:07:48.344Z,1000.56
2023-11-12T03:08:48.327Z,1000.65
2023-11-12T03:09:48.350Z,1000.61
2023-11-12T03:10:48.323Z,1000.64
2023-11-12T03:11:48.341Z,1000.65
2023-11-12T03:12:48.281Z,1000.65
2023-11-12T03:13:48.278Z,1000.65
2023-11-12T03:14:48.273Z,1000.66
2023-11-12T03:15:48.358Z,1000.66
2023-11-12T03:16:48.262Z,1000.65
2023-11-12T03:17:48.263Z,1000.63
2023-11-12T03:18:48.290Z,1000.61
2023-11-12T03:19:48.225Z,1000.59
2023-11-12T03:20:48.220Z,1000.66
2023-11-12T03:21:48.226Z,1000.64
2023-11-12T03:22:48.230Z,1000.62
2023-11-12T03:23:48.186Z,1000.61
2023-11-12T03:24:48.177Z,1000.59
2023-11-12T03:25:48.169Z,1000.59
2023-11-12T03:26:48.163Z,1000.59
2023-11-12T03:27:48.177Z,1000.63
2023-11-12T03:28:48.115Z,1000.63
2023-11-12T03:29:48.124Z,1000.62
2023-11-12T03:30:48.149Z,1000.62
2023-11-12T03:31:48.088Z,1000.64
2023-11-12T03:32:48.145Z,1000.58
2023-11-12T03:33:48.118Z,1000.62
2023-11-12T03:34:48.067Z,1000.60
2023-11-12T03:35:48.066Z,1000.60
2023-11-12T03:36:48.106Z,1000.57
2023-11-12T03:37:48.067Z,1000.63
2023-11-12T03:38:48.023Z,1000.64
2023-11-12T03:39:48.037Z,1000.61
2023-11-12T03:40:48.008Z,1000.66
2023-11-12T03:41:48.000Z,1000.67
2023-11-12T03:42:48.034Z,1000.66
2023-11-12T03:43:47.980Z,1000.68
2023-11-12T03:44:47.951Z,1000.67
2023-11-12T03:45:47.984Z,1000.66
2023-11-12T03:46:47.960Z,1000.69
2023-11-12T03:47:47.992Z,1000.70
2023-11-12T03:48:47.936Z,1000.70
2023-11-12T03:49:47.922Z,1000.69
2023-11-12T03:50:47.902Z,1000.73
2023-11-12T03:51:47.906Z,1000.74
2023-11-12T03:52:47.864Z,1000.74
2023-11-12T03:53:47.880Z,1000.73
2023-11-12T03:54:47.987Z,1000.76
2023-11-12T03:55:47.860Z,1000.75
2023-11-12T03:56:47.839Z,1000.77
2023-11-12T03:57:47.892Z,1000.77
2023-11-12T03:58:47.807Z,1000.78
2023-11-12T03:59:47.827Z,1000.80
2023-11-12T04:00:47.884Z,1000.81
2023-11-12T04:01:47.831Z,1000.80
2023-11-12T04:02:47.869Z,1000.80
2023-11-12T04:03:47.917Z,1000.82
2023-11-12T04:04:48.741Z,1000.79
2023-11-12T04:05:47.757Z,1000.76
2023-11-12T04:06:47.735Z,1000.79
2023-11-12T04:07:47.752Z,1000.81
2023-11-12T04:08:47.704Z,1000.83
2023-11-12T04:09:47.711Z,1000.82
2023-11-12T04:10:47.693Z,1000.79
2023-11-12T04:11:47.690Z,1000.79
2023-11-12T04:12:47.678Z,1000.81
2023-11-12T04:13:47.647Z,1000.79
2023-11-12T04:14:47.637Z,1000.84
2023-11-12T04:15:47.669Z,1000.79
2023-11-12T04:16:47.628Z,1000.79
2023-11-12T04:17:47.652Z,1000.78
2023-11-12T04:18:47.591Z,1000.80
2023-11-12T04:19:47.589Z,1000.77
2023-11-12T04:20:47.579Z,1000.81
2023-11-12T04:21:47.590Z,1000.84
2023-11-12T04:22:47.564Z,1000.82
2023-11-12T04:23:47.590Z,1000.80
2023-11-12T04:24:47.556Z,1000.81
2023-11-12T04:25:47.520Z,1000.82
2023-11-12T04:26:47.527Z,1000.83
2023-11-12T04:27:47.528Z,1000.80
2023-11-12T04:28:47.510Z,1000.80
2023-11-12T04:29:47.490Z,1000.77
2023-11-12T04:30:47.471Z,1000.78
2023-11-12T04:31:47.479Z,1000.79
2023-11-12T04:32:47.498Z,1000.76
2023-11-12T04:33:47.444Z,1000.71
2023-11-12T04:34:47.432Z,1000.69
2023-11-12T04:35:47.414Z,1000.73
2023-11-12T04:36:47.410Z,1000.76
2023-11-12T04:37:47.407Z,1000.75
2023-11-12T04:38:47.394Z,1000.82
2023-11-12T04:39:47.428Z,1000.82
2023-11-12T04:40:47.381Z,1000.83
2023-11-12T04:41:47.427Z,1000.81
2023-11-12T04:42:47.385Z,1000.85
2023-11-12T04:43:47.350Z,1000.80
2023-11-12T04:44:47.329Z,1000.83
2023-11-12T04:45:47.484Z,1000.83
2023-11-12T04:46:47.317Z,1000.85
2023-11-12T04:47:47.349Z,1000.82
2023-11-12T04:48:47.299Z,1000.84
2023-11-12T04:49:47.281Z,1000.82
2023-11-12T04:50:47.254Z,1000.81
2023-11-12T04:51:47.291Z,1000.83
2023-11-12T04:52:47.242Z,1000.81
2023-11-12T04:53:47.237Z,1000.85
2023-11-12T04:54:47.249Z,1000.81
2023-11-12T04:55:47.204Z,1000.85
2023-11-12T04:56:47.209Z,1000.88
2023-11-12T04:57:47.204Z,1000.90
2023-11-12T04:58:47.186Z,1000.88
2023-11-12T04:59:47.163Z,1000.90
2023-11-12T05:00:47.301Z,1000.89
2023-11-12T05:01:47.209Z,1000.87
2023-11-12T05:02:47.163Z,1000.90
2023-11-12T05:03:47.294Z,1000.85
2023-11-12T05:04:47.113Z,1000.89
2023-11-12T05:05:47.109Z,1000.94
2023-11-12T05:06:47.137Z,1000.94
2023-11-12T05:07:47.095Z,1000.91
2023-11-12T05:08:47.085Z,1000.90
2023-11-12T05:09:47.099Z,1000.93
2023-11-12T05:10:47.058Z,1000.96
2023-11-12T05:11:47.079Z,1000.99
2023-11-12T05:12:47.176Z,1000.99
2023-11-12T05:13:47.017Z,1001.00
2023-11-12T05:14:47.007Z,1001.02
2023-11-12T05:15:47.024Z,1001.02
2023-11-12T05:16:46.997Z,1001.06
2023-11-12T05:17:46.990Z,1001.07
2023-11-12T05:18:47.030Z,1001.06
2023-11-12T05:19:46.963Z,1001.09
2023-11-12T05:20:46.949Z,1001.10
2023-11-12T05:21:47.008Z,1001.01
2023-11-12T05:22:46.952Z,1000.96
2023-11-12T05:23:46.919Z,1000.93
2023-11-12T05:24:46.970Z,1000.93
2023-11-12T05:25:46.958Z,1000.87
2023-11-12T05:26:46.883Z,1000.83
2023-11-12T05:27:46.937Z,1000.87
2023-11-12T05:28:46.886Z,1000.95
2023-11-12T05:29:46.845Z,1001.02
2023-11-12T05:30:46.975Z,1001.02
2023-11-12T05:31:46.871Z,1001.06
2023-11-12T05:32:46.839Z,1001.06
2023-11-12T05:33:46.889Z,1001.15
2023-11-12T05:34:46.792Z,1001.18
2023-11-12T05:35:46.788Z,1001.19
2023-11-12T05:36:46.842Z,1001.17
2023-11-12T05:37:46.783Z,1001.19
2023-11-12T05:38:46.762Z,1001.19
2023-11-12T05:39:46.778Z,1001.16
2023-11-12T05:40:46.741Z,1001.23
2023-11-12T05:41:46.744Z,1001.25
2023-11-12T05:42:46.742Z,1001.25
2023-11-12T05:43:46.727Z,1001.29
2023-11-12T05:44:46.721Z,1001.30
2023-11-12T05:45:46.737Z,1001.32
2023-11-12T05:46:46.738Z,1001.27
2023-11-12T05:47:46.696Z,1001.26
2023-11-12T05:48:46.661Z,1001.21
2023-11-12T05:49:46.656Z,1001.23
2023-11-12T05:50:46.645Z,1001.32
2023-11-12T05:51:46.638Z,1001.27
2023-11-12T05:52:46.556Z,1001.32
2023-11-12T05:53:46.585Z,1001.26
2023-11-12T05:54:46.613Z,1001.30
2023-11-12T05:55:46.574Z,1001.25
2023-11-12T05:56:46.524Z,1001.29
2023-11-12T05:57:46.573Z,1001.30
2023-11-12T05:58:46.536Z,1001.24
2023-11-12T05:59:46.511Z,1001.29
2023-11-12T06:00:46.558Z,1001.34
2023-11-12T06:01:46.546Z,1001.36
2023-11-12T06:02:46.524Z,1001.35
2023-11-12T06:03:46.502Z,1001.39
2023-11-12T06:04:46.446Z,1001.37
2023-11-12T06:05:46.493Z,1001.39
2023-11-12T06:06:46.486Z,1001.41
2023-11-12T06:07:46.410Z,1001.41
2023-11-12T06:08:46.400Z,1001.43
2023-11-12T06:09:46.441Z,1001.43
2023-11-12T06:10:46.369Z,1001.47
2023-11-12T06:11:46.383Z,1001.43
2023-11-12T06:12:46.400Z,1001.41
2023-11-12T06:13:46.360Z,1001.47
2023-11-12T06:14:49.285Z,1001.46
2023-11-12T06:15:46.363Z,1001.46
2023-11-12T06:16:46.382Z,1001.45
2023-11-12T06:17:46.312Z,1001.44
2023-11-12T06:18:46.317Z,1001.50
2023-11-12T06:19:46.304Z,1001.49
2023-11-12T06:20:46.330Z,1001.44
2023-11-12T06:21:46.324Z,1001.46
2023-11-12T06:22:46.263Z,1001.47
2023-11-12T06:23:46.226Z,1001.44
2023-11-12T06:24:46.273Z,1001.44
2023-11-12T06:25:46.225Z,1001.46
2023-11-12T06:26:46.196Z,1001.46
2023-11-12T06:27:46.225Z,1001.42
2023-11-12T06:28:46.176Z,1001.40
2023-11-12T06:29:46.187Z,1001.45
2023-11-12T06:30:46.197Z,1001.44
2023-11-12T06:31:46.164Z,1001.49
2023-11-12T06:32:46.240Z,1001.49
2023-11-12T06:33:46.159Z,1001.53
2023-11-12T06:34:46.133Z,1001.54
2023-11-12T06:35:46.101Z,1001.59
2023-11-12T06:36:46.160Z,1001.62
2023-11-12T06:37:46.081Z,1001.66
2023-11-12T06:38:46.096Z,1001.66
2023-11-12T06:39:46.113Z,1001.66
2023-11-12T06:40:46.051Z,1001.64
2023-11-12T06:41:46.064Z,1001.67
2023-11-12T06:42:46.125Z,1001.67
2023-11-12T06:43:46.086Z,1001.66
2023-11-12T06:44:46.013Z,1001.68
2023-11-12T06:45:46.043Z,1001.67
2023-11-12T06:46:46.064Z,1001.64
2023-11-12T06:47:46.014Z,1001.70
2023-11-12T06:48:46.055Z,1001.68
2023-11-12T06:49:45.959Z,1001.71
2023-11-12T06:50:45.953Z,1001.69
2023-11-12T06:51:46.011Z,1001.66
2023-11-12T06:52:45.929Z,1001.73
2023-11-12T06:53:45.934Z,1001.76
2023-11-12T06:54:45.968Z,1001.70
2023-11-12T06:55:45.938Z,1001.64
2023-11-12T06:56:45.888Z,1001.65
2023-11-12T06:57:45.930Z,1001.65
2023-11-12T06:58:45.865Z,1001.66
2023-11-12T06:59:45.893Z,1001.71
2023-11-12T07:00:45.908Z,1001.69
2023-11-12T07:01:45.926Z,1001.76
2023-11-12T07:02:45.897Z,1001.75
2023-11-12T07:03:45.917Z,1001.73
2023-11-12T07:04:45.806Z,1001.74
2023-11-12T07:05:45.797Z,1001.75
2023-11-12T07:07:01.011Z,1001.74
2023-11-12T07:07:45.784Z,1001.78
2023-11-12T07:08:45.773Z,1001.79
2023-11-12T07:09:45.877Z,1001.83
2023-11-12T07:10:45.772Z,1001.82
2023-11-12T07:11:45.731Z,1001.85
2023-11-12T07:12:45.842Z,1001.86
2023-11-12T07:13:45.705Z,1001.86
2023-11-12T07:14:45.697Z,1001.88
2023-11-12T07:15:45.786Z,1001.88
2023-11-12T07:16:45.732Z,1001.86
2023-11-12T07:17:45.665Z,1001.88
2023-11-12T07:18:52.316Z,1001.89
2023-11-12T07:19:45.734Z,1001.86
2023-11-12T07:20:46.492Z,1001.90
2023-11-12T07:21:45.692Z,1001.92
2023-11-12T07:22:45.610Z,1001.94
2023-11-12T07:23:45.613Z,1001.92
2023-11-12T07:24:45.644Z,1001.89
2023-11-12T07:25:45.616Z,1001.86
2023-11-12T07:26:45.582Z,1001.90
2023-11-12T07:27:45.594Z,1001.88
2023-11-12T07:28:45.590Z,1001.91
2023-11-12T07:29:45.550Z,1001.91
2023-11-12T07:30:45.565Z,1001.88
2023-11-12T07:31:45.532Z,1001.90
2023-11-12T07:32:45.532Z,1001.85
2023-11-12T07:33:45.544Z,1001.88
2023-11-12T07:34:45.488Z,1001.92
2023-11-12T07:35:45.475Z,1001.92
2023-11-12T07:36:45.522Z,1001.93
2023-11-12T07:37:45.487Z,1001.96
2023-11-12T07:38:45.442Z,1001.94
2023-11-12T07:39:45.534Z,1001.98
2023-11-12T07:40:45.439Z,1002.00
2023-11-12T07:41:45.429Z,1001.98
2023-11-12T07:42:45.461Z,1001.98
2023-11-12T07:43:45.406Z,1001.97
2023-11-12T07:44:46.177Z,1001.94
2023-11-12T07:45:45.419Z,1001.97
2023-11-12T07:46:45.482Z,1001.96
2023-11-12T07:47:45.395Z,1001.98
2023-11-12T07:48:45.379Z,1002.01
2023-11-12T07:49:45.363Z,1002.04
2023-11-12T07:50:45.320Z,1002.04
2023-11-12T07:51:45.312Z,1002.07
2023-11-12T07:52:45.327Z,1002.06
2023-11-12T07:53:45.302Z,1002.05
2023-11-12T07:54:45.325Z,1002.06
2023-11-12T07:55:45.286Z,1002.05
2023-11-12T07:56:45.277Z,1002.02
2023-11-12T07:57:45.296Z,1002.03
2023-11-12T07:58:45.258Z,1002.03
2023-11-12T07:59:45.225Z,1002.06
2023-11-12T08:00:45.271Z,1002.06
2023-11-12T08:01:45.234Z,1002.05
2023-11-12T08:02:45.244Z,1002.02
2023-11-12T08:03:45.250Z,1002.09
2023-11-12T08:04:45.191Z,1002.05
2023-11-12T08:05:45.161Z,1002.03
2023-11-12T08:06:45.154Z,1002.00
2023-11-12T08:07:45.188Z,1002.05
2023-11-12T08:08:45.142Z,1002.06
2023-11-12T08:09:45.184Z,1002.06
2023-11-12T08:10:45.100Z,1002.09
2023-11-12T08:11:45.088Z,1002.05
2023-11-12T08:12:45.126Z,1002.05
2023-11-12T08:13:45.103Z,1002.07
2023-11-12T08:14:45.091Z,1002.05
2023-11-12T08:15:45.088Z,1002.05
2023-11-12T08:16:45.044Z,1002.07
2023-11-12T08:17:45.069Z,1002.05
2023-11-12T08:18:45.070Z,1002.05
2023-11-12T08:19:45.029Z,1002.07
2023-11-12T08:20:45.006Z,1002.04
2023-11-12T08:21:45.015Z,1002.01
2023-11-12T08:22:45.014Z,1002.05
2023-11-12T08:23:44.964Z,1002.06
2023-11-12T08:24:45.029Z,1002.06
2023-11-12T08:25:44.950Z,1002.05
2023-11-12T08:26:44.934Z,1002.04
2023-11-12T08:27:44.989Z,1002.02
2023-11-12T08:28:44.930Z,1002.08
2023-11-12T08:29:44.919Z,1002.05
2023-11-12T08:30:44.904Z,1002.07
2023-11-12T08:31:44.995Z,1002.08
2023-11-12T08:32:44.916Z,1002.08
2023-11-12T08:33:44.923Z,1002.10
2023-11-12T08:34:44.863Z,1002.11
2023-11-12T08:35:44.849Z,1002.10
2023-11-12T08:36:44.891Z,1002.08
2023-11-12T08:37:44.867Z,1002.14
2023-11-12T08:38:44.812Z,1002.09
2023-11-12T08:39:44.818Z,1002.11
2023-11-12T08:40:44.789Z,1002.09
2023-11-12T08:41:44.786Z,1002.13
2023-11-12T08:42:44.815Z,1002.13
2023-11-12T08:43:44.754Z,1002.19
2023-11-12T08:44:44.751Z,1002.16
2023-11-12T08:45:44.786Z,1002.17
2023-11-12T08:46:44.791Z,1002.17
2023-11-12T08:47:44.750Z,1002.20
2023-11-12T08:48:44.737Z,1002.18
2023-11-12T08:49:44.705Z,1002.19
2023-11-12T08:50:44.683Z,1002.17
2023-11-12T08:51:44.697Z,1002.19
2023-11-12T08:52:44.681Z,1002.22
2023-11-12T08:53:44.673Z,1002.21
2023-11-12T08:54:44.692Z,1002.23
2023-11-12T08:55:44.698Z,1002.28
2023-11-12T08:56:44.671Z,1002.26
2023-11-12T08:57:44.724Z,1002.28
2023-11-12T08:58:44.644Z,1002.26
2023-11-12T08:59:44.615Z,1002.27
2023-11-12T09:00:44.621Z,1002.28
2023-11-12T09:01:44.652Z,1002.27
2023-11-12T09:02:44.623Z,1002.28
2023-11-12T09:03:44.637Z,1002.32
2023-11-12T09:04:44.634Z,1002.30
2023-11-12T09:05:44.518Z,1002.29
2023-11-12T09:06:51.077Z,1002.34
2023-11-12T09:07:44.603Z,1002.33
2023-11-12T09:08:44.504Z,1002.36
2023-11-12T09:09:44.564Z,1002.33
2023-11-12T09:10:44.496Z,1002.40
2023-11-12T09:11:44.484Z,1002.39
2023-11-12T09:12:44.523Z,1002.41
2023-11-12T09:13:44.467Z,1002.41
2023-11-12T09:14:44.461Z,1002.43
2023-11-12T09:15:44.451Z,1002.40
2023-11-12T09:16:44.454Z,1002.44
2023-11-12T09:17:44.436Z,1002.42
2023-11-12T09:18:44.484Z,1002.43
2023-11-12T09:19:44.418Z,1002.43
2023-11-12T09:20:44.505Z,1002.50
2023-11-12T09:21:44.409Z,1002.48
2023-11-12T09:22:44.373Z,1002.54
2023-11-12T09:23:44.349Z,1002.52
2023-11-12T09:24:55.343Z,1002.54
2023-11-12T09:25:44.359Z,1002.55
2023-11-12T09:26:44.324Z,1002.57
2023-11-12T09:27:44.328Z,1002.59
2023-11-12T09:28:44.316Z,1002.58
2023-11-12T09:29:44.265Z,1002.61
2023-11-12T09:30:53.966Z,1002.57
2023-11-12T09:31:44.293Z,1002.61
2023-11-12T09:32:44.312Z,1002.60
2023-11-12T09:33:44.294Z,1002.55
2023-11-12T09:34:44.220Z,1002.56
2023-11-12T09:35:44.233Z,1002.57
2023-11-12T09:36:44.220Z,1002.57
2023-11-12T09:37:44.192Z,1002.55
2023-11-12T09:38:44.177Z,1002.56
2023-11-12T09:39:44.270Z,1002.55
2023-11-12T09:40:44.165Z,1002.52
2023-11-12T09:41:44.184Z,1002.55
2023-11-12T09:42:44.191Z,1002.55
2023-11-12T09:43:44.153Z,1002.53
2023-11-12T09:44:44.138Z,1002.57
2023-11-12T09:45:44.173Z,1002.50
2023-11-12T09:46:44.140Z,1002.51
2023-11-12T09:47:44.150Z,1002.48
2023-11-12T09:48:44.149Z,1002.48
2023-11-12T09:49:44.086Z,1002.50
2023-11-12T09:50:44.057Z,1002.48
2023-11-12T09:51:44.070Z,1002.50
2023-11-12T09:52:44.063Z,1002.48
2023-11-12T09:53:44.036Z,1002.50
2023-11-12T09:54:44.084Z,1002.52
2023-11-12T09:55:44.006Z,1002.52
2023-11-12T09:56:45.047Z,1002.54
2023-11-12T09:57:44.051Z,1002.53
2023-11-12T09:58:43.990Z,1002.56
2023-11-12T09:59:43.968Z,1002.52
2023-11-12T10:00:43.993Z,1002.51
2023-11-12T10:01:43.973Z,1002.48
2023-11-12T10:02:44.054Z,1002.48
2023-11-12T10:03:44.026Z,1002.52
2023-11-12T10:04:44.095Z,1002.49
2023-11-12T10:05:43.909Z,1002.48
2023-11-12T10:06:43.946Z,1002.49
2023-11-12T10:07:43.893Z,1002.55
2023-11-12T10:08:43.877Z,1002.41
2023-11-12T10:09:43.952Z,1002.46
2023-11-12T10:10:43.852Z,1002.49
2023-11-12T10:11:43.854Z,1002.46
2023-11-12T10:12:43.867Z,1002.47
2023-11-12T10:13:43.827Z,1002.48
2023-11-12T10:14:43.810Z,1002.49
2023-11-12T10:15:43.873Z,1002.51
2023-11-12T10:16:43.800Z,1002.51
2023-11-12T10:17:43.823Z,1002.48
2023-11-12T10:18:43.766Z,1002.49
2023-11-12T10:19:43.771Z,1002.53
2023-11-12T10:20:43.752Z,1002.52
2023-11-12T10:21:43.748Z,1002.52
2023-11-12T10:22:43.723Z,1002.56
2023-11-12T10:23:43.722Z,1002.43
2023-11-12T10:24:43.759Z,1002.52
2023-11-12T10:25:43.712Z,1002.54
2023-11-12T10:26:43.714Z,1002.53
2023-11-12T10:27:43.701Z,1002.50
2023-11-12T10:28:43.659Z,1002.52
2023-11-12T10:29:43.652Z,1002.49
2023-11-12T10:30:43.760Z,1002.51
2023-11-12T10:31:43.647Z,1002.48
2023-11-12T10:32:44.161Z,1002.54
2023-11-12T10:33:43.694Z,1002.56
2023-11-12T10:34:43.582Z,1002.53
2023-11-12T10:35:43.584Z,1002.53
2023-11-12T10:36:43.615Z,1002.54
2023-11-12T10:37:43.565Z,1002.56
2023-11-12T10:38:43.567Z,1002.57
2023-11-12T10:39:43.553Z,1002.58
2023-11-12T10:40:43.535Z,1002.57
2023-11-12T10:41:43.519Z,1002.56
2023-11-12T10:42:43.560Z,1002.54
2023-11-12T10:43:43.504Z,1002.67
2023-11-12T10:44:44.226Z,1002.59
2023-11-12T10:45:44.298Z,1002.64
2023-11-12T10:46:43.525Z,1002.64
2023-11-12T10:47:43.475Z,1002.59
2023-11-12T10:48:43.551Z,1002.66
2023-11-12T10:49:43.420Z,1002.66
2023-11-12T10:50:43.424Z,1002.67
2023-11-12T10:51:43.423Z,1002.67
2023-11-12T10:52:43.419Z,1002.70
2023-11-12T10:53:43.409Z,1002.62
2023-11-12T10:54:43.449Z,1002.63
2023-11-12T10:55:43.366Z,1002.64
2023-11-12T10:56:43.351Z,1002.64
2023-11-12T10:57:43.440Z,1002.62
2023-11-12T10:58:43.376Z,1002.60
2023-11-12T10:59:43.311Z,1002.63
2023-11-12T11:00:43.392Z,1002.67
2023-11-12T11:01:43.355Z,1002.65
2023-11-12T11:02:43.349Z,1002.68
2023-11-12T11:03:43.363Z,1002.70
2023-11-12T11:04:43.365Z,1002.65
2023-11-12T11:05:44.232Z,1002.64
2023-11-12T11:06:43.283Z,1002.67
2023-11-12T11:07:43.239Z,1002.70
2023-11-12T11:08:43.250Z,1002.72
2023-11-12T11:09:43.256Z,1002.72
2023-11-12T11:10:43.210Z,1002.71
2023-11-12T11:11:43.201Z,1002.74
2023-11-12T11:12:43.269Z,1002.71
2023-11-12T11:13:43.207Z,1002.78
2023-11-12T11:14:43.182Z,1002.70
2023-11-12T11:15:43.207Z,1002.71
2023-11-12T11:16:43.150Z,1002.70
2023-11-12T11:17:43.151Z,1002.79
2023-11-12T11:18:43.162Z,1002.76
2023-11-12T11:19:43.107Z,1002.75
2023-11-12T11:20:43.105Z,1002.80
2023-11-12T11:21:43.353Z,1002.78
2023-11-12T11:22:43.080Z,1002.81
2023-11-12T11:23:43.173Z,1002.81
2023-11-12T11:24:43.129Z,1002.80
2023-11-12T11:25:43.056Z,1002.74
2023-11-12T11:26:43.051Z,1002.73
2023-11-12T11:27:43.072Z,1002.76
2023-11-12T11:28:43.742Z,1002.78
2023-11-12T11:29:43.016Z,1002.77
2023-11-12T11:30:43.067Z,1002.74
2023-11-12T11:31:43.000Z,1002.77
2023-11-12T11:32:43.026Z,1002.80
2023-11-12T11:33:44.055Z,1002.76
2023-11-12T11:34:42.994Z,1002.76
2023-11-12T11:35:42.954Z,1002.72
2023-11-12T11:36:42.966Z,1002.76
2023-11-12T11:37:42.934Z,1002.75
2023-11-12T11:38:42.916Z,1002.78
2023-11-12T11:39:42.933Z,1002.79
2023-11-12T11:40:42.918Z,1002.82
2023-11-12T11:41:42.866Z,1002.88
2023-11-12T11:42:42.896Z,1002.81
2023-11-12T11:43:42.871Z,1002.86
2023-11-12T11:44:42.923Z,1002.81
2023-11-12T11:45:42.852Z,1002.76
2023-11-12T11:46:42.876Z,1002.79
2023-11-12T11:47:42.853Z,1002.76
2023-11-12T11:48:42.885Z,1002.76
2023-11-12T11:49:45.960Z,1002.78
2023-11-12T11:50:46.899Z,1002.72
2023-11-12T11:51:42.823Z,1002.76
2023-11-12T11:52:42.799Z,1002.78
2023-11-12T11:53:42.761Z,1002.74
2023-11-12T11:54:42.761Z,1002.74
2023-11-12T11:55:42.755Z,1002.75
2023-11-12T11:56:42.738Z,1002.78
2023-11-12T11:57:44.051Z,1002.81
2023-11-12T11:58:42.708Z,1002.82
2023-11-12T11:59:42.678Z,1002.84
2023-11-12T12:00:42.726Z,1002.80
2023-11-12T12:01:42.747Z,1002.76
2023-11-12T12:02:42.671Z,1002.80
2023-11-12T12:03:42.674Z,1002.76
2023-11-12T12:04:42.663Z,1002.77
2023-11-12T12:05:42.632Z,1002.76